createdAt,value
2023-01-05T00:00:34.440Z,823.57
2023-01-05T00:01:34.425Z,823.61
2023-01-05T00:02:34.448Z,823.56
2023-01-05T00:03:34.432Z,823.56
2023-01-05T00:04:34.477Z,823.57
2023-01-05T00:05:34.453Z,823.56
2023-01-05T00:06:34.476Z,823.56
2023-01-05T00:07:34.459Z,823.52
2023-01-05T00:08:37.426Z,823.49
2023-01-05T00:09:34.477Z,823.49
2023-01-05T00:10:34.485Z,823.45
2023-01-05T00:11:34.524Z,823.44
2023-01-05T00:12:34.514Z,823.43
2023-01-05T00:13:34.521Z,823.43
2023-01-05T00:14:34.513Z,823.43
2023-01-05T00:15:34.522Z,823.45
2023-01-05T00:16:34.591Z,823.45
2023-01-05T00:17:34.535Z,823.44
2023-01-05T00:18:34.543Z,823.41
2023-01-05T00:19:34.542Z,823.37
2023-01-05T00:20:34.559Z,823.42
2023-01-05T00:21:34.563Z,823.35
2023-01-05T00:22:34.719Z,823.39
2023-01-05T00:23:34.673Z,823.40
2023-01-05T00:24:34.582Z,823.43
2023-01-05T00:25:34.589Z,823.42
2023-01-05T00:26:34.596Z,823.43
2023-01-05T00:27:34.605Z,823.47
2023-01-05T00:28:34.617Z,823.48
2023-01-05T00:29:34.636Z,823.44
2023-01-05T00:30:34.632Z,823.47
2023-01-05T00:31:34.656Z,823.44
2023-01-05T00:32:34.658Z,823.47
2023-01-05T00:33:34.650Z,823.46
2023-01-05T00:34:34.656Z,823.46
2023-01-05T00:35:34.663Z,823.46
2023-01-05T00:36:34.674Z,823.50
2023-01-05T00:37:34.701Z,823.53
2023-01-05T00:38:34.689Z,823.55
2023-01-05T00:39:34.689Z,823.54
2023-01-05T00:40:34.722Z,823.56
2023-01-05T00:41:34.706Z,823.56
2023-01-05T00:42:34.716Z,823.54
2023-01-05T00:43:34.728Z,823.51
2023-01-05T00:44:34.733Z,823.51
2023-01-05T00:45:34.834Z,823.53
2023-01-05T00:46:34.742Z,823.49
2023-01-05T00:47:34.752Z,823.51
2023-01-05T00:48:34.761Z,823.51
2023-01-05T00:49:34.768Z,823.50
2023-01-05T00:50:34.790Z,823.52
2023-01-05T00:51:34.777Z,823.51
2023-01-05T00:52:34.785Z,823.46
2023-01-05T00:53:34.794Z,823.49
2023-01-05T00:54:34.832Z,823.48
2023-01-05T00:55:34.805Z,823.52
2023-01-05T00:56:34.823Z,823.50
2023-01-05T00:57:34.831Z,823.51
2023-01-05T00:58:34.831Z,823.53
2023-01-05T00:59:34.846Z,823.51
2023-01-05T01:00:34.847Z,823.50
2023-01-05T01:01:35.002Z,823.49
2023-01-05T01:02:34.920Z,823.48
2023-01-05T01:03:34.912Z,823.49
2023-01-05T01:04:34.874Z,823.50
2023-01-05T01:05:34.882Z,823.50
2023-01-05T01:06:34.891Z,823.47
2023-01-05T01:07:34.997Z,823.49
2023-01-05T01:08:34.904Z,823.47
2023-01-05T01:09:34.917Z,823.45
2023-01-05T01:10:34.947Z,823.49
2023-01-05T01:11:34.993Z,823.46
2023-01-05T01:12:34.949Z,823.45
2023-01-05T01:13:34.941Z,823.45
2023-01-05T01:14:34.948Z,823.53
2023-01-05T01:15:34.951Z,823.47
2023-01-05T01:16:35.057Z,823.48
2023-01-05T01:17:34.988Z,823.49
2023-01-05T01:18:34.977Z,823.48
2023-01-05T01:19:34.983Z,823.50
2023-01-05T01:20:35.002Z,823.48
2023-01-05T01:21:35.002Z,823.45
2023-01-05T01:22:35.005Z,823.45
2023-01-05T01:23:35.019Z,823.47
2023-01-05T01:24:35.023Z,823.50
2023-01-05T01:25:35.024Z,823.49
2023-01-05T01:26:35.036Z,823.47
2023-01-05T01:27:35.052Z,823.49
2023-01-05T01:28:35.055Z,823.51
2023-01-05T01:29:35.055Z,823.50
2023-01-05T01:30:35.127Z,823.53
2023-01-05T01:31:35.073Z,823.51
2023-01-05T01:32:35.083Z,823.54
2023-01-05T01:33:35.108Z,823.58
2023-01-05T01:34:35.097Z,823.52
2023-01-05T01:35:35.104Z,823.56
2023-01-05T01:36:35.113Z,823.52
2023-01-05T01:37:35.114Z,823.49
2023-01-05T01:38:35.127Z,823.56
2023-01-05T01:39:35.147Z,823.54
2023-01-05T01:40:35.162Z,823.52
2023-01-05T01:41:35.146Z,823.54
2023-01-05T01:42:35.158Z,823.54
2023-01-05T01:43:35.162Z,823.53
2023-01-05T01:44:35.174Z,823.52
2023-01-05T01:45:35.227Z,823.55
2023-01-05T01:46:35.186Z,823.49
2023-01-05T01:47:35.195Z,823.50
2023-01-05T01:48:35.204Z,823.50
2023-01-05T01:49:35.226Z,823.52
2023-01-05T01:50:35.228Z,823.54
2023-01-05T01:51:35.224Z,823.49
2023-01-05T01:52:35.233Z,823.49
2023-01-05T01:53:35.295Z,823.48
2023-01-05T01:54:35.264Z,823.48
2023-01-05T01:55:35.251Z,823.49
2023-01-05T01:56:35.271Z,823.56
2023-01-05T01:57:35.275Z,823.49
2023-01-05T01:58:35.278Z,823.48
2023-01-05T01:59:35.282Z,823.47
2023-01-05T02:00:35.299Z,823.45
2023-01-05T02:01:35.450Z,823.42
2023-01-05T02:02:35.436Z,823.41
2023-01-05T02:03:35.317Z,823.42
2023-01-05T02:04:35.391Z,823.38
2023-01-05T02:05:35.361Z,823.38
2023-01-05T02:06:35.337Z,823.35
2023-01-05T02:07:35.342Z,823.35
2023-01-05T02:08:35.373Z,823.33
2023-01-05T02:09:35.370Z,823.31
2023-01-05T02:10:35.390Z,823.33
2023-01-05T02:11:35.376Z,823.33
2023-01-05T02:12:35.408Z,823.32
2023-01-05T02:13:35.391Z,823.34
2023-01-05T02:14:35.415Z,823.28
2023-01-05T02:15:35.411Z,823.30
2023-01-05T02:16:35.493Z,823.29
2023-01-05T02:17:35.419Z,823.27
2023-01-05T02:18:35.447Z,823.30
2023-01-05T02:19:35.436Z,823.26
2023-01-05T02:20:35.452Z,823.31
2023-01-05T02:21:35.475Z,823.30
2023-01-05T02:22:35.463Z,823.27
2023-01-05T02:23:35.487Z,823.30
2023-01-05T02:24:35.481Z,823.31
2023-01-05T02:25:35.480Z,823.31
2023-01-05T02:26:35.491Z,823.31
2023-01-05T02:27:35.535Z,823.33
2023-01-05T02:28:35.575Z,823.30
2023-01-05T02:29:35.564Z,823.29
2023-01-05T02:30:35.624Z,823.27
2023-01-05T02:31:35.569Z,823.29
2023-01-05T02:32:35.578Z,823.29
2023-01-05T02:33:35.560Z,823.27
2023-01-05T02:34:35.565Z,823.26
2023-01-05T02:35:35.592Z,823.24
2023-01-05T02:36:35.569Z,823.23
2023-01-05T02:37:35.596Z,823.21
2023-01-05T02:38:35.602Z,823.19
2023-01-05T02:39:35.588Z,823.16
2023-01-05T02:40:35.602Z,823.14
2023-01-05T02:41:35.608Z,823.11
2023-01-05T02:42:35.714Z,823.09
2023-01-05T02:43:35.622Z,823.11
2023-01-05T02:44:35.627Z,823.08
2023-01-05T02:45:35.636Z,823.09
2023-01-05T02:46:35.714Z,823.08
2023-01-05T02:47:35.648Z,823.02
2023-01-05T02:48:35.658Z,823.02
2023-01-05T02:49:35.684Z,823.01
2023-01-05T02:50:35.681Z,823.07
2023-01-05T02:51:35.678Z,823.05
2023-01-05T02:52:35.694Z,823.02
2023-01-05T02:53:35.715Z,822.98
2023-01-05T02:54:35.712Z,822.97
2023-01-05T02:55:35.709Z,822.93
2023-01-05T02:56:35.756Z,822.95
2023-01-05T02:57:35.724Z,822.89
2023-01-05T02:58:35.745Z,822.89
2023-01-05T02:59:35.762Z,822.88
2023-01-05T03:00:35.768Z,822.85
2023-01-05T03:01:35.930Z,822.89
2023-01-05T03:02:36.057Z,822.92
2023-01-05T03:03:35.838Z,822.88
2023-01-05T03:04:35.782Z,822.84
2023-01-05T03:05:35.783Z,822.90
2023-01-05T03:06:35.813Z,822.90
2023-01-05T03:07:35.802Z,822.89
2023-01-05T03:08:35.811Z,822.84
2023-01-05T03:09:35.833Z,822.87
2023-01-05T03:10:35.826Z,822.86
2023-01-05T03:11:35.830Z,822.88
2023-01-05T03:12:35.866Z,822.86
2023-01-05T03:13:35.849Z,822.86
2023-01-05T03:14:35.864Z,822.84
2023-01-05T03:15:35.967Z,822.87
2023-01-05T03:16:35.929Z,822.87
2023-01-05T03:17:35.888Z,822.86
2023-01-05T03:18:35.905Z,822.82
2023-01-05T03:19:35.933Z,822.80
2023-01-05T03:20:35.913Z,822.79
2023-01-05T03:21:35.913Z,822.77
2023-01-05T03:22:35.926Z,822.84
2023-01-05T03:23:35.921Z,822.80
2023-01-05T03:24:35.930Z,822.81
2023-01-05T03:25:35.953Z,822.81
2023-01-05T03:26:35.955Z,822.83
2023-01-05T03:27:35.951Z,822.79
2023-01-05T03:28:35.965Z,822.81
2023-01-05T03:29:35.962Z,822.79
2023-01-05T03:30:35.994Z,822.83
2023-01-05T03:31:35.978Z,822.81
2023-01-05T03:32:35.990Z,822.84
2023-01-05T03:33:35.995Z,822.81
2023-01-05T03:34:36.017Z,822.78
2023-01-05T03:35:36.014Z,822.75
2023-01-05T03:36:36.018Z,822.70
2023-01-05T03:37:36.029Z,822.71
2023-01-05T03:38:36.042Z,822.75
2023-01-05T03:39:36.040Z,822.78
2023-01-05T03:40:36.061Z,822.80
2023-01-05T03:41:36.079Z,822.77
2023-01-05T03:42:36.071Z,822.81
2023-01-05T03:43:36.076Z,822.86
2023-01-05T03:44:36.103Z,822.85
2023-01-05T03:45:36.087Z,822.84
2023-01-05T03:46:36.170Z,822.83
2023-01-05T03:47:36.111Z,822.88
2023-01-05T03:48:36.115Z,822.90
2023-01-05T03:49:36.126Z,822.90
2023-01-05T03:50:36.130Z,822.93
2023-01-05T03:51:41.491Z,822.87
2023-01-05T03:52:36.139Z,822.88
2023-01-05T03:53:36.152Z,822.82
2023-01-05T03:54:36.154Z,822.80
2023-01-05T03:55:36.163Z,822.87
2023-01-05T03:56:36.192Z,822.86
2023-01-05T03:57:36.194Z,822.85
2023-01-05T03:58:36.284Z,822.83
2023-01-05T03:59:36.205Z,822.88
2023-01-05T04:00:36.202Z,822.86
2023-01-05T04:01:36.306Z,822.86
2023-01-05T04:02:36.465Z,822.84
2023-01-05T04:03:36.258Z,822.82
2023-01-05T04:04:36.224Z,822.85
2023-01-05T04:05:36.244Z,822.87
2023-01-05T04:06:36.252Z,822.84
2023-01-05T04:07:36.251Z,822.87
2023-01-05T04:08:36.255Z,822.90
2023-01-05T04:09:36.264Z,822.88
2023-01-05T04:10:36.294Z,822.82
2023-01-05T04:11:36.280Z,822.85
2023-01-05T04:12:36.284Z,822.82
2023-01-05T04:13:36.320Z,822.83
2023-01-05T04:14:36.298Z,822.81
2023-01-05T04:15:36.343Z,822.79
2023-01-05T04:16:36.373Z,822.82
2023-01-05T04:17:36.363Z,822.84
2023-01-05T04:18:36.334Z,822.80
2023-01-05T04:19:36.351Z,822.80
2023-01-05T04:20:36.347Z,822.76
2023-01-05T04:21:36.351Z,822.72
2023-01-05T04:22:36.390Z,822.69
2023-01-05T04:23:36.371Z,822.74
2023-01-05T04:24:36.372Z,822.70
2023-01-05T04:25:36.433Z,822.66
2023-01-05T04:26:36.390Z,822.70
2023-01-05T04:27:36.395Z,822.68
2023-01-05T04:28:36.404Z,822.69
2023-01-05T04:29:36.428Z,822.72
2023-01-05T04:30:36.417Z,822.71
2023-01-05T04:31:36.445Z,822.67
2023-01-05T04:32:36.529Z,822.68
2023-01-05T04:33:36.446Z,822.66
2023-01-05T04:34:36.445Z,822.69
2023-01-05T04:35:36.453Z,822.69
2023-01-05T04:36:36.482Z,822.65
2023-01-05T04:37:36.473Z,822.69
2023-01-05T04:38:36.475Z,822.67
2023-01-05T04:39:36.489Z,822.68
2023-01-05T04:40:36.485Z,822.67
2023-01-05T04:41:36.496Z,822.69
2023-01-05T04:42:36.508Z,822.71
2023-01-05T04:43:36.512Z,822.71
2023-01-05T04:44:36.523Z,822.73
2023-01-05T04:45:36.544Z,822.73
2023-01-05T04:46:36.556Z,822.71
2023-01-05T04:47:36.543Z,822.70
2023-01-05T04:48:36.542Z,822.69
2023-01-05T04:49:36.563Z,822.67
2023-01-05T04:50:36.560Z,822.67
2023-01-05T04:51:36.566Z,822.66
2023-01-05T04:52:36.576Z,822.65
2023-01-05T04:53:36.581Z,822.64
2023-01-05T04:54:36.589Z,822.62
2023-01-05T04:55:36.608Z,822.61
2023-01-05T04:56:36.608Z,822.62
2023-01-05T04:57:36.627Z,822.62
2023-01-05T04:58:36.622Z,822.64
2023-01-05T04:59:36.624Z,822.63
2023-01-05T05:00:36.628Z,822.61
2023-01-05T05:01:36.888Z,822.59
2023-01-05T05:02:36.813Z,822.63
2023-01-05T05:03:36.697Z,822.65
2023-01-05T05:04:36.664Z,822.63
2023-01-05T05:05:36.677Z,822.62
2023-01-05T05:06:36.672Z,822.62
2023-01-05T05:07:36.685Z,822.63
2023-01-05T05:08:36.690Z,822.64
2023-01-05T05:09:36.721Z,822.66
2023-01-05T05:10:36.702Z,822.68
2023-01-05T05:11:36.741Z,822.66
2023-01-05T05:12:36.759Z,822.68
2023-01-05T05:13:36.732Z,822.69
2023-01-05T05:14:36.734Z,822.65
2023-01-05T05:15:36.845Z,822.67
2023-01-05T05:16:36.744Z,822.68
2023-01-05T05:17:36.779Z,822.66
2023-01-05T05:18:36.762Z,822.70
2023-01-05T05:19:36.771Z,822.68
2023-01-05T05:20:36.771Z,822.65
2023-01-05T05:21:36.781Z,822.68
2023-01-05T05:22:36.785Z,822.73
2023-01-05T05:23:36.797Z,822.70
2023-01-05T05:24:36.806Z,822.73
2023-01-05T05:25:36.811Z,822.73
2023-01-05T05:26:36.814Z,822.75
2023-01-05T05:27:36.852Z,822.79
2023-01-05T05:28:36.844Z,822.72
2023-01-05T05:29:36.852Z,822.72
2023-01-05T05:30:36.844Z,822.73
2023-01-05T05:31:37.000Z,822.73
2023-01-05T05:32:42.371Z,822.73
2023-01-05T05:33:36.883Z,822.75
2023-01-05T05:34:36.874Z,822.75
2023-01-05T05:35:36.879Z,822.75
2023-01-05T05:36:36.888Z,822.76
2023-01-05T05:37:36.897Z,822.76
2023-01-05T05:38:36.900Z,822.75
2023-01-05T05:39:36.917Z,822.72
2023-01-05T05:40:36.913Z,822.76
2023-01-05T05:41:36.926Z,822.78
2023-01-05T05:42:36.929Z,822.80
2023-01-05T05:43:36.945Z,822.81
2023-01-05T05:44:36.941Z,822.78
2023-01-05T05:45:36.959Z,822.80
2023-01-05T05:46:37.069Z,822.83
2023-01-05T05:47:36.962Z,822.80
2023-01-05T05:48:36.967Z,822.81
2023-01-05T05:49:37.002Z,822.81
2023-01-05T05:50:36.979Z,822.85
2023-01-05T05:51:36.992Z,822.83
2023-01-05T05:52:36.989Z,822.83
2023-01-05T05:53:37.005Z,822.87
2023-01-05T05:54:37.005Z,822.89
2023-01-05T05:55:37.023Z,822.89
2023-01-05T05:56:37.129Z,822.85
2023-01-05T05:57:37.033Z,822.89
2023-01-05T05:58:37.033Z,822.87
2023-01-05T05:59:37.044Z,822.85
2023-01-05T06:00:37.060Z,822.86
2023-01-05T06:01:37.298Z,822.89
2023-01-05T06:02:37.205Z,822.85
2023-01-05T06:03:37.109Z,822.88
2023-01-05T06:04:37.116Z,822.89
2023-01-05T06:05:37.112Z,822.86
2023-01-05T06:06:37.082Z,822.88
2023-01-05T06:07:37.126Z,822.87
2023-01-05T06:08:37.098Z,822.97
2023-01-05T06:09:37.113Z,822.98
2023-01-05T06:10:37.114Z,822.95
2023-01-05T06:11:37.129Z,822.96
2023-01-05T06:12:37.137Z,822.99
2023-01-05T06:13:37.138Z,823.01
2023-01-05T06:14:37.143Z,822.97
2023-01-05T06:15:37.156Z,823.05
2023-01-05T06:16:37.227Z,822.98
2023-01-05T06:17:37.171Z,822.98
2023-01-05T06:18:37.167Z,822.95
2023-01-05T06:19:37.179Z,822.93
2023-01-05T06:20:37.188Z,822.92
2023-01-05T06:21:37.210Z,822.92
2023-01-05T06:22:37.196Z,822.90
2023-01-05T06:23:37.215Z,822.92
2023-01-05T06:24:37.210Z,822.94
2023-01-05T06:25:37.222Z,822.92
2023-01-05T06:26:37.223Z,822.88
2023-01-05T06:27:37.233Z,822.88
2023-01-05T06:28:37.247Z,822.92
2023-01-05T06:29:37.255Z,822.90
2023-01-05T06:30:37.265Z,822.94
2023-01-05T06:31:37.308Z,822.95
2023-01-05T06:32:37.266Z,822.97
2023-01-05T06:33:37.278Z,823.01
2023-01-05T06:34:37.279Z,822.99
2023-01-05T06:35:37.289Z,823.02
2023-01-05T06:36:37.321Z,823.03
2023-01-05T06:37:37.341Z,823.03
2023-01-05T06:38:37.321Z,823.03
2023-01-05T06:39:37.317Z,823.05
2023-01-05T06:40:37.331Z,823.07
2023-01-05T06:41:37.333Z,823.07
2023-01-05T06:42:37.332Z,823.05
2023-01-05T06:43:37.344Z,823.00
2023-01-05T06:44:37.361Z,823.03
2023-01-05T06:45:37.426Z,822.98
2023-01-05T06:46:37.365Z,823.00
2023-01-05T06:47:37.375Z,822.96
2023-01-05T06:48:37.375Z,822.98
2023-01-05T06:49:37.400Z,822.97
2023-01-05T06:50:37.394Z,822.93
2023-01-05T06:51:37.402Z,822.92
2023-01-05T06:52:37.409Z,822.91
2023-01-05T06:53:37.430Z,822.88
2023-01-05T06:54:37.419Z,822.85
2023-01-05T06:55:37.424Z,822.86
2023-01-05T06:56:37.429Z,822.89
2023-01-05T06:57:37.442Z,822.91
2023-01-05T06:58:37.438Z,822.90
2023-01-05T06:59:37.447Z,822.89
2023-01-05T07:00:37.490Z,822.93
2023-01-05T07:01:37.537Z,822.93
2023-01-05T07:02:37.466Z,822.92
2023-01-05T07:03:37.548Z,822.93
2023-01-05T07:04:37.495Z,822.95
2023-01-05T07:05:37.492Z,822.94
2023-01-05T07:06:37.492Z,822.90
2023-01-05T07:07:37.507Z,822.88
2023-01-05T07:08:37.512Z,822.87
2023-01-05T07:09:37.531Z,822.86
2023-01-05T07:10:37.516Z,822.85
2023-01-05T07:11:37.523Z,822.89
2023-01-05T07:12:37.540Z,822.89
2023-01-05T07:13:37.545Z,822.88
2023-01-05T07:14:37.540Z,822.87
2023-01-05T07:15:37.553Z,822.86
2023-01-05T07:16:37.632Z,822.86
2023-01-05T07:17:37.565Z,822.88
2023-01-05T07:18:37.571Z,822.89
2023-01-05T07:19:37.579Z,822.89
2023-01-05T07:20:37.582Z,822.93
2023-01-05T07:21:37.589Z,822.93
2023-01-05T07:22:37.596Z,822.93
2023-01-05T07:23:37.629Z,822.93
2023-01-05T07:24:37.612Z,822.96
2023-01-05T07:25:37.639Z,822.91
2023-01-05T07:26:37.632Z,822.91
2023-01-05T07:27:37.630Z,822.90
2023-01-05T07:28:37.690Z,822.92
2023-01-05T07:29:37.642Z,822.93
2023-01-05T07:30:37.657Z,822.90
2023-01-05T07:31:37.687Z,822.95
2023-01-05T07:32:37.698Z,822.94
2023-01-05T07:33:40.255Z,822.93
2023-01-05T07:34:37.674Z,822.90
2023-01-05T07:35:37.692Z,822.91
2023-01-05T07:36:37.688Z,822.91
2023-01-05T07:37:37.703Z,822.95
2023-01-05T07:38:37.705Z,822.93
2023-01-05T07:39:37.715Z,822.93
2023-01-05T07:40:37.717Z,822.94
2023-01-05T07:41:37.746Z,822.88
2023-01-05T07:42:37.730Z,822.89
2023-01-05T07:43:37.743Z,822.85
2023-01-05T07:44:37.750Z,822.89
2023-01-05T07:45:37.816Z,822.83
2023-01-05T07:46:37.766Z,822.86
2023-01-05T07:47:37.770Z,822.86
2023-01-05T07:48:37.773Z,822.84
2023-01-05T07:49:37.787Z,822.86
2023-01-05T07:50:37.789Z,822.86
2023-01-05T07:51:37.795Z,822.82
2023-01-05T07:52:37.819Z,822.87
2023-01-05T07:53:44.011Z,822.89
2023-01-05T07:54:37.848Z,822.87
2023-01-05T07:55:37.831Z,822.92
2023-01-05T07:56:37.839Z,822.87
2023-01-05T07:57:37.884Z,822.84
2023-01-05T07:58:37.847Z,822.89
2023-01-05T07:59:37.867Z,822.86
2023-01-05T08:00:37.878Z,822.89
2023-01-05T08:01:38.008Z,822.90
2023-01-05T08:02:37.916Z,822.88
2023-01-05T08:03:37.895Z,822.90
2023-01-05T08:04:37.962Z,822.89
2023-01-05T08:05:37.890Z,822.87
2023-01-05T08:06:37.926Z,822.93
2023-01-05T08:07:37.921Z,822.93
2023-01-05T08:08:37.917Z,822.94
2023-01-05T08:09:37.934Z,823.00
2023-01-05T08:10:37.930Z,823.02
2023-01-05T08:11:37.935Z,822.98
2023-01-05T08:12:37.943Z,822.93
2023-01-05T08:13:37.976Z,822.93
2023-01-05T08:14:37.971Z,822.94
2023-01-05T08:15:37.971Z,822.90
2023-01-05T08:16:37.992Z,822.92
2023-01-05T08:17:37.975Z,822.93
2023-01-05T08:18:37.987Z,822.95
2023-01-05T08:19:37.998Z,822.94
2023-01-05T08:20:38.020Z,822.96
2023-01-05T08:21:38.003Z,822.99
2023-01-05T08:22:38.033Z,822.96
2023-01-05T08:23:38.017Z,822.95
2023-01-05T08:24:38.029Z,822.96
2023-01-05T08:25:38.041Z,822.95
2023-01-05T08:26:38.085Z,822.98
2023-01-05T08:27:38.045Z,823.01
2023-01-05T08:28:38.058Z,823.01
2023-01-05T08:29:38.080Z,823.03
2023-01-05T08:30:38.072Z,823.06
2023-01-05T08:31:38.103Z,823.03
2023-01-05T08:32:38.089Z,823.02
2023-01-05T08:33:38.086Z,823.01
2023-01-05T08:34:38.119Z,823.04
2023-01-05T08:35:38.105Z,823.05
2023-01-05T08:36:38.117Z,823.02
2023-01-05T08:37:38.115Z,822.99
2023-01-05T08:38:38.128Z,823.04
2023-01-05T08:39:38.129Z,823.07
2023-01-05T08:40:38.147Z,823.07
2023-01-05T08:41:38.143Z,823.08
2023-01-05T08:42:38.158Z,823.06
2023-01-05T08:43:38.161Z,823.08
2023-01-05T08:44:38.175Z,823.08
2023-01-05T08:45:38.236Z,823.15
2023-01-05T08:46:38.196Z,823.14
2023-01-05T08:47:38.204Z,823.12
2023-01-05T08:48:38.195Z,823.17
2023-01-05T08:49:38.201Z,823.11
2023-01-05T08:50:38.209Z,823.14
2023-01-05T08:51:38.248Z,823.12
2023-01-05T08:52:38.226Z,823.09
2023-01-05T08:53:38.251Z,823.07
2023-01-05T08:54:38.237Z,823.09
2023-01-05T08:55:38.251Z,823.09
2023-01-05T08:56:39.430Z,823.07
2023-01-05T08:57:38.272Z,823.10
2023-01-05T08:58:38.265Z,823.10
2023-01-05T08:59:38.269Z,823.13
2023-01-05T09:00:38.280Z,823.15
2023-01-05T09:01:38.410Z,823.14
2023-01-05T09:02:38.572Z,823.11
2023-01-05T09:03:38.341Z,823.16
2023-01-05T09:04:38.320Z,823.14
2023-01-05T09:05:38.324Z,823.16
2023-01-05T09:06:38.324Z,823.15
2023-01-05T09:07:38.332Z,823.17
2023-01-05T09:08:38.334Z,823.18
2023-01-05T09:09:38.376Z,823.16
2023-01-05T09:10:38.358Z,823.15
2023-01-05T09:11:38.353Z,823.13
2023-01-05T09:12:38.370Z,823.14
2023-01-05T09:13:38.366Z,823.11
2023-01-05T09:14:38.477Z,823.14
2023-01-05T09:15:38.385Z,823.15
2023-01-05T09:17:38.529Z,823.16
2023-01-05T09:18:38.411Z,823.16
2023-01-05T09:19:38.453Z,823.15
2023-01-05T09:20:40.166Z,823.13
2023-01-05T09:21:38.434Z,823.13
2023-01-05T09:22:38.441Z,823.13
2023-01-05T09:23:38.437Z,823.14
2023-01-05T09:24:38.447Z,823.15
2023-01-05T09:25:38.450Z,823.12
2023-01-05T09:26:38.570Z,823.09
2023-01-05T09:27:38.495Z,823.07
2023-01-05T09:28:38.476Z,823.08
2023-01-05T09:29:38.486Z,823.03
2023-01-05T09:30:44.443Z,823.08
2023-01-05T09:31:38.535Z,823.07
2023-01-05T09:32:38.507Z,823.05
2023-01-05T09:33:38.620Z,823.09
2023-01-05T09:34:38.516Z,823.07
2023-01-05T09:35:38.533Z,823.09
2023-01-05T09:36:38.529Z,823.11
2023-01-05T09:37:38.646Z,823.11
2023-01-05T09:38:43.431Z,823.13
2023-01-05T09:39:38.546Z,823.12
2023-01-05T09:40:38.582Z,823.14
2023-01-05T09:41:38.568Z,823.11
2023-01-05T09:42:38.575Z,823.14
2023-01-05T09:43:38.576Z,823.15
2023-01-05T09:44:38.587Z,823.13
2023-01-05T09:45:38.646Z,823.12
2023-01-05T09:46:38.636Z,823.15
2023-01-05T09:47:38.602Z,823.17
2023-01-05T09:48:38.653Z,823.12
2023-01-05T09:49:38.737Z,823.15
2023-01-05T09:50:38.641Z,823.12
2023-01-05T09:51:38.637Z,823.10
2023-01-05T09:52:38.895Z,823.11
2023-01-05T09:53:38.655Z,823.08
2023-01-05T09:54:38.659Z,823.08
2023-01-05T09:55:38.683Z,823.07
2023-01-05T09:57:09.525Z,823.03
2023-01-05T09:57:38.675Z,823.08
2023-01-05T09:58:38.683Z,823.08
2023-01-05T09:59:38.693Z,823.08
2023-01-05T10:00:38.699Z,823.07
2023-01-05T10:01:38.801Z,823.00
2023-01-05T10:02:38.716Z,823.01
2023-01-05T10:04:02.917Z,823.01
2023-01-05T10:04:38.804Z,823.01
2023-01-05T10:05:38.983Z,822.97
2023-01-05T10:06:38.741Z,822.97
2023-01-05T10:07:38.750Z,822.98
2023-01-05T10:08:38.755Z,822.99
2023-01-05T10:09:38.756Z,823.01
2023-01-05T10:10:38.787Z,823.00
2023-01-05T10:11:38.772Z,822.97
2023-01-05T10:12:38.783Z,823.02
2023-01-05T10:13:38.786Z,823.05
2023-01-05T10:14:38.794Z,823.05
2023-01-05T10:15:38.893Z,823.08
2023-01-05T10:16:38.859Z,823.09
2023-01-05T10:17:42.451Z,823.08
2023-01-05T10:18:38.826Z,823.10
2023-01-05T10:19:38.831Z,823.16
2023-01-05T10:20:38.843Z,823.14
2023-01-05T10:21:38.964Z,823.11
2023-01-05T10:22:39.223Z,823.11
2023-01-05T10:23:38.855Z,823.11
2023-01-05T10:24:38.886Z,823.12
2023-01-05T10:25:38.878Z,823.10
2023-01-05T10:27:06.393Z,823.14
2023-01-05T10:27:38.885Z,823.14
2023-01-05T10:28:38.895Z,823.17
2023-01-05T10:29:38.914Z,823.10
2023-01-05T10:30:38.931Z,823.09
2023-01-05T10:31:38.913Z,823.11
2023-01-05T10:32:49.384Z,823.07
2023-01-05T10:33:41.698Z,823.14
2023-01-05T10:34:38.938Z,823.15
2023-01-05T10:36:00.260Z,823.13
2023-01-05T10:37:38.975Z,823.15
2023-01-05T10:38:38.968Z,823.13
2023-01-05T10:39:38.968Z,823.12
2023-01-05T10:40:38.981Z,823.08
2023-01-05T10:41:38.989Z,823.09
2023-01-05T10:42:39.002Z,823.09
2023-01-05T10:43:39.012Z,823.08
2023-01-05T10:44:39.073Z,823.10
2023-01-05T10:45:57.356Z,823.08
2023-01-05T10:46:42.833Z,823.06
2023-01-05T10:47:39.141Z,823.09
2023-01-05T10:48:39.040Z,823.03
2023-01-05T10:49:39.042Z,823.00
2023-01-05T10:50:39.056Z,822.97
2023-01-05T10:51:39.063Z,822.97
2023-01-05T10:52:39.076Z,822.95
2023-01-05T10:53:39.223Z,822.90
2023-01-05T10:54:39.090Z,822.90
2023-01-05T10:55:39.095Z,822.90
2023-01-05T10:56:39.110Z,822.86
2023-01-05T10:57:39.131Z,822.91
2023-01-05T10:58:39.117Z,822.89
2023-01-05T10:59:39.171Z,822.89
2023-01-05T11:00:39.135Z,822.87
2023-01-05T11:01:39.267Z,822.84
2023-01-05T11:02:39.301Z,822.76
2023-01-05T11:04:23.755Z,822.79
2023-01-05T11:04:39.238Z,822.78
2023-01-05T11:05:39.164Z,822.82
2023-01-05T11:06:39.176Z,822.82
2023-01-05T11:07:39.183Z,822.83
2023-01-05T11:08:39.194Z,822.82
2023-01-05T11:09:39.334Z,822.86
2023-01-05T11:10:39.221Z,822.84
2023-01-05T11:11:39.214Z,822.82
2023-01-05T11:12:39.228Z,822.83
2023-01-05T11:13:39.229Z,822.83
2023-01-05T11:14:39.243Z,822.80
2023-01-05T11:15:39.335Z,822.82
2023-01-05T11:16:39.265Z,822.85
2023-01-05T11:17:39.258Z,822.80
2023-01-05T11:18:39.271Z,822.82
2023-01-05T11:19:39.274Z,822.79
2023-01-05T11:20:39.285Z,822.77
2023-01-05T11:21:39.290Z,822.77
2023-01-05T11:22:39.310Z,822.75
2023-01-05T11:23:39.310Z,822.75
2023-01-05T11:24:39.320Z,822.72
2023-01-05T11:25:39.441Z,822.72
2023-01-05T11:26:39.333Z,822.71
2023-01-05T11:27:39.339Z,822.67
2023-01-05T11:28:39.354Z,822.67
2023-01-05T11:29:39.355Z,822.66
2023-01-05T11:30:39.390Z,822.62
2023-01-05T11:31:39.382Z,822.62
2023-01-05T11:32:39.388Z,822.59
2023-01-05T11:33:39.405Z,822.59
2023-01-05T11:34:39.406Z,822.62
2023-01-05T11:35:39.442Z,822.60
2023-01-05T11:36:39.414Z,822.62
2023-01-05T11:37:39.424Z,822.61
2023-01-05T11:38:39.430Z,822.65
2023-01-05T11:39:39.437Z,822.62
2023-01-05T11:40:39.450Z,822.59
2023-01-05T11:41:39.681Z,822.57
2023-01-05T11:42:39.471Z,822.55
2023-01-05T11:43:39.573Z,822.54
2023-01-05T11:44:39.490Z,822.58
2023-01-05T11:45:39.490Z,822.57
2023-01-05T11:46:39.583Z,822.59
2023-01-05T11:47:43.836Z,822.57
2023-01-05T11:48:39.524Z,822.55
2023-01-05T11:49:39.527Z,822.56
2023-01-05T11:50:39.555Z,822.55
2023-01-05T11:51:39.561Z,822.52
2023-01-05T11:52:39.574Z,822.54
2023-01-05T11:53:39.565Z,822.54
2023-01-05T11:54:39.582Z,822.59
2023-01-05T11:55:39.588Z,822.57
2023-01-05T11:56:39.644Z,822.65
2023-01-05T11:57:39.719Z,822.57
2023-01-05T11:58:39.618Z,822.61
2023-01-05T11:59:39.627Z,822.59
2023-01-05T12:00:39.671Z,822.61
2023-01-05T12:01:39.718Z,822.59
2023-01-05T12:02:39.740Z,822.61
2023-01-05T12:03:39.698Z,822.56
2023-01-05T12:04:39.681Z,822.55
2023-01-05T12:05:39.691Z,822.56
2023-01-05T12:06:39.699Z,822.60
2023-01-05T12:07:39.718Z,822.54
2023-01-05T12:08:39.727Z,822.54
2023-01-05T12:09:39.775Z,822.55
2023-01-05T12:10:39.752Z,822.54
2023-01-05T12:11:39.745Z,822.52
2023-01-05T12:12:39.910Z,822.50
2023-01-05T12:13:39.876Z,822.51
2023-01-05T12:14:39.776Z,822.45
2023-01-05T12:15:39.814Z,822.46
2023-01-05T12:16:39.813Z,822.47
2023-01-05T12:17:39.810Z,822.46
2023-01-05T12:18:39.917Z,822.49
2023-01-05T12:19:39.845Z,822.53
2023-01-05T12:20:39.839Z,822.49
2023-01-05T12:21:39.879Z,822.48
2023-01-05T12:22:39.861Z,822.50
2023-01-05T12:23:39.953Z,822.47
2023-01-05T12:24:39.889Z,822.48
2023-01-05T12:25:39.893Z,822.48
2023-01-05T12:26:39.906Z,822.48
2023-01-05T12:27:39.923Z,822.48
2023-01-05T12:28:42.151Z,822.48
2023-01-05T12:34:39.978Z,822.44
2023-01-05T12:35:40.022Z,822.44